National Geographic Sea Lion — WUR9646 — position and weather

sailwx.info

Track history (hours):
 
Tides and Currents Weather Stations Pressure Air Temp Water Temp Dewpoint Dewpoint Depression Visibility Wind Speed Wind Dir Waves Ship Positions

National Geographic Sea Lion

Owner: Lindblad Expeditions, Inc., SEATTLE, WA. More information available from US FCC via Universal Licensing System and Coast Guard Vessel Documentation Center.

Last reported at 2018-Apr-23 19:13 UTC. Time now 2018-Apr-25 02:40 UTC.
Position N 38°34' W 124°03'.

Length 45 m; draft 2.4 m.

Type: Passenger vessel. MMSI: 366396000.

Date/timePositionNaut miles runAvg speedWind from/ knotsBaromVisibWave heightAir tempDewpointWater temp
2018-Apr-23 19:13N 38°34' W 124°03'4 7.8
2018-Apr-23 18:39N 38°30' W 124°00'1 7.6
2018-Apr-23 18:30N 38°29' W 123°59'5 8.7
2018-Apr-23 17:55N 38°25' W 123°56'4 9.1
2018-Apr-23 17:29N 38°22' W 123°53'4 9.2
2018-Apr-23 17:00N 38°18' W 123°51'4 8.9
2018-Apr-23 16:30N 38°14' W 123°48'5 9.1
2018-Apr-23 16:00N 38°10' W 123°45'4 9.1
2018-Apr-23 15:30N 38°06' W 123°42'5 8.9
2018-Apr-23 15:00N 38°02' W 123°39'4 8.6
2018-Apr-23 14:30N 37°58' W 123°37'4 8.6
2018-Apr-23 14:00N 37°55' W 123°34'4 8.5
2018-Apr-23 13:30N 37°51' W 123°31'7 8.0
2018-Apr-23 12:35N 37°45' W 123°26'1 7.9
2018-Apr-23 12:30N 37°44' W 123°26'4 7.8
2018-Apr-23 12:01N 37°41' W 123°23'5 8.1
2018-Apr-23 11:25N 37°37' W 123°20'4 8.4
2018-Apr-23 11:00N 37°34' W 123°17'4 8.4
2018-Apr-23 10:30N 37°31' W 123°14'4 8.6
2018-Apr-23 10:00N 37°27' W 123°11'5 8.4
2018-Apr-23 09:26N 37°23' W 123°08'4 8.2
2018-Apr-23 09:00N 37°20' W 123°06'4 8.1
2018-Apr-23 08:30N 37°17' W 123°03'4 8.0
2018-Apr-23 07:59N 37°13' W 123°01'4 7.9
2018-Apr-23 07:30N 37°09' W 122°58'21 7.6
2018-Apr-23 04:47N 36°51' W 122°48'2 7.7
2018-Apr-23 04:30N 36°49' W 122°47'4 7.5
2018-Apr-23 04:00N 36°45' W 122°45'4 7.6
2018-Apr-23 03:30N 36°42' W 122°43'4 7.7
2018-Apr-23 03:00N 36°38' W 122°41'4 7.8
2018-Apr-23 02:29N 36°34' W 122°39'11 7.7
2018-Apr-23 01:05N 36°24' W 122°34'12 7.9
2018-Apr-22 23:30N 36°14' W 122°27'66 7.6
2018-Apr-22 14:46N 35°19' W 121°40'2 7.9
2018-Apr-22 14:28N 35°17' W 121°38'13 7.7
2018-Apr-22 12:46N 35°06' W 121°29'2 7.8
2018-Apr-22 12:28N 35°05' W 121°27'4 8.0
2018-Apr-22 12:01N 35°02' W 121°25'4 7.8
2018-Apr-22 11:30N 34°58' W 121°22'4 7.9
2018-Apr-22 10:58N 34°55' W 121°19'4 7.9
2018-Apr-22 10:30N 34°52' W 121°16'4 8.0
2018-Apr-22 10:00N 34°49' W 121°14'4 8.0
2018-Apr-22 09:30N 34°45' W 121°11'4 8.6
2018-Apr-22 09:01N 34°42' W 121°08'4 8.7
2018-Apr-22 08:30N 34°38' W 121°05'4 8.7
2018-Apr-22 08:00N 34°35' W 121°02'4 8.1
2018-Apr-22 07:30N 34°31' W 120°59'4 7.5
2018-Apr-22 07:01N 34°28' W 120°57'5 9.1
2018-Apr-22 06:30N 34°27' W 120°51'5 9.4
2018-Apr-22 06:01N 34°25' W 120°46'5 9.3
2018-Apr-22 05:30N 34°24' W 120°41'5 9.1
2018-Apr-22 05:00N 34°23' W 120°35'4 9.1
2018-Apr-22 04:30N 34°22' W 120°30'5 9.4
2018-Apr-22 04:00N 34°20' W 120°25'5 9.6
2018-Apr-22 03:30N 34°19' W 120°19'5 9.6
2018-Apr-22 03:00N 34°18' W 120°13'5 9.6
2018-Apr-22 02:30N 34°17' W 120°08'5 9.6
2018-Apr-22 02:00N 34°16' W 120°02'5 9.6
2018-Apr-22 01:30N 34°14' W 119°56'5 9.5
2018-Apr-22 01:01N 34°13' W 119°51'5 9.3
2018-Apr-22 00:30N 34°12' W 119°45'4 8.3
2018-Apr-21 23:59N 34°11' W 119°40'4 8.5
2018-Apr-21 23:29N 34°09' W 119°36'4 8.8
2018-Apr-21 23:00N 34°08' W 119°31'4 8.5
2018-Apr-21 22:30N 34°07' W 119°26'4 8.4
2018-Apr-21 21:58N 34°06' W 119°20'4 8.7
2018-Apr-21 21:29N 34°05' W 119°16'4 8.6
2018-Apr-21 21:00N 34°03' W 119°11'5 8.6
2018-Apr-21 20:29N 34°01' W 119°06'5 8.9
2018-Apr-21 19:58N 33°58' W 119°02'4 8.4
2018-Apr-21 19:27N 33°56' W 118°57'4 8.5
2018-Apr-21 18:58N 33°54' W 118°53'4 8.5
2018-Apr-21 18:30N 33°52' W 118°49'5 8.7
2018-Apr-21 17:59N 33°50' W 118°44'4 8.9
2018-Apr-21 17:30N 33°48' W 118°39'5 8.8
2018-Apr-21 16:58N 33°45' W 118°35'11 8.7
2018-Apr-21 15:39N 33°40' W 118°23'3 8.5
2018-Apr-21 15:17N 33°39' W 118°19'4 8.3
2018-Apr-21 14:51N 33°37' W 118°15'3 8.5
2018-Apr-21 14:28N 33°36' W 118°11'26 9.4
2018-Apr-21 11:44N 33°14' W 117°56'3 9.8
2018-Apr-21 11:25N 33°12' W 117°53'10 9.8
2018-Apr-21 10:22N 33°05' W 117°44'4 9.9
2018-Apr-21 09:59N 33°02' W 117°41'510.0
2018-Apr-21 09:30N 32°58' W 117°37'5 9.9
2018-Apr-21 09:00N 32°55' W 117°34'5 9.4
2018-Apr-21 08:30N 32°50' W 117°32'5 9.7
2018-Apr-21 08:00N 32°47' W 117°28'5 9.5
2018-Apr-21 07:30N 32°43' W 117°24'  
Track history (hours):
 
Tides and Currents Weather Stations Pressure Air Temp Water Temp Dewpoint Dewpoint Depression Visibility Wind Speed Wind Dir Waves Ship Positions

National Geographic Sea Lion

Owner: Lindblad Expeditions, Inc., SEATTLE, WA. More information available from US FCC via Universal Licensing System and Coast Guard Vessel Documentation Center.

Last reported at 2018-Apr-23 19:13 UTC. Time now 2018-Apr-25 02:40 UTC.
Position N 38°34' W 124°03'.

Length 45 m; draft 2.4 m.

Type: Passenger vessel. MMSI: 366396000.

Date/timePositionNaut miles runAvg speedWind from/ knotsBaromVisibWave heightAir tempDewpointWater temp
2018-Apr-23 19:13N 38°34' W 124°03'4 7.8
2018-Apr-23 18:39N 38°30' W 124°00'1 7.6
2018-Apr-23 18:30N 38°29' W 123°59'5 8.7
2018-Apr-23 17:55N 38°25' W 123°56'4 9.1
2018-Apr-23 17:29N 38°22' W 123°53'4 9.2
2018-Apr-23 17:00N 38°18' W 123°51'4 8.9
2018-Apr-23 16:30N 38°14' W 123°48'5 9.1
2018-Apr-23 16:00N 38°10' W 123°45'4 9.1
2018-Apr-23 15:30N 38°06' W 123°42'5 8.9
2018-Apr-23 15:00N 38°02' W 123°39'4 8.6
2018-Apr-23 14:30N 37°58' W 123°37'4 8.6
2018-Apr-23 14:00N 37°55' W 123°34'4 8.5
2018-Apr-23 13:30N 37°51' W 123°31'7 8.0
2018-Apr-23 12:35N 37°45' W 123°26'1 7.9
2018-Apr-23 12:30N 37°44' W 123°26'4 7.8
2018-Apr-23 12:01N 37°41' W 123°23'5 8.1
2018-Apr-23 11:25N 37°37' W 123°20'4 8.4
2018-Apr-23 11:00N 37°34' W 123°17'4 8.4
2018-Apr-23 10:30N 37°31' W 123°14'4 8.6
2018-Apr-23 10:00N 37°27' W 123°11'5 8.4
2018-Apr-23 09:26N 37°23' W 123°08'4 8.2
2018-Apr-23 09:00N 37°20' W 123°06'4 8.1
2018-Apr-23 08:30N 37°17' W 123°03'4 8.0
2018-Apr-23 07:59N 37°13' W 123°01'4 7.9
2018-Apr-23 07:30N 37°09' W 122°58'21 7.6
2018-Apr-23 04:47N 36°51' W 122°48'2 7.7
2018-Apr-23 04:30N 36°49' W 122°47'4 7.5
2018-Apr-23 04:00N 36°45' W 122°45'4 7.6
2018-Apr-23 03:30N 36°42' W 122°43'4 7.7
2018-Apr-23 03:00N 36°38' W 122°41'4 7.8
2018-Apr-23 02:29N 36°34' W 122°39'11 7.7
2018-Apr-23 01:05N 36°24' W 122°34'12 7.9
2018-Apr-22 23:30N 36°14' W 122°27'66 7.6
2018-Apr-22 14:46N 35°19' W 121°40'2 7.9
2018-Apr-22 14:28N 35°17' W 121°38'13 7.7
2018-Apr-22 12:46N 35°06' W 121°29'2 7.8
2018-Apr-22 12:28N 35°05' W 121°27'4 8.0
2018-Apr-22 12:01N 35°02' W 121°25'4 7.8
2018-Apr-22 11:30N 34°58' W 121°22'4 7.9
2018-Apr-22 10:58N 34°55' W 121°19'4 7.9
2018-Apr-22 10:30N 34°52' W 121°16'4 8.0
2018-Apr-22 10:00N 34°49' W 121°14'4 8.0
2018-Apr-22 09:30N 34°45' W 121°11'4 8.6
2018-Apr-22 09:01N 34°42' W 121°08'4 8.7
2018-Apr-22 08:30N 34°38' W 121°05'4 8.7
2018-Apr-22 08:00N 34°35' W 121°02'4 8.1
2018-Apr-22 07:30N 34°31' W 120°59'4 7.5
2018-Apr-22 07:01N 34°28' W 120°57'5 9.1
2018-Apr-22 06:30N 34°27' W 120°51'5 9.4
2018-Apr-22 06:01N 34°25' W 120°46'5 9.3
2018-Apr-22 05:30N 34°24' W 120°41'5 9.1
2018-Apr-22 05:00N 34°23' W 120°35'4 9.1
2018-Apr-22 04:30N 34°22' W 120°30'5 9.4
2018-Apr-22 04:00N 34°20' W 120°25'5 9.6
2018-Apr-22 03:30N 34°19' W 120°19'5 9.6
2018-Apr-22 03:00N 34°18' W 120°13'5 9.6
2018-Apr-22 02:30N 34°17' W 120°08'5 9.6
2018-Apr-22 02:00N 34°16' W 120°02'5 9.6
2018-Apr-22 01:30N 34°14' W 119°56'5 9.5
2018-Apr-22 01:01N 34°13' W 119°51'5 9.3
2018-Apr-22 00:30N 34°12' W 119°45'4 8.3
2018-Apr-21 23:59N 34°11' W 119°40'4 8.5
2018-Apr-21 23:29N 34°09' W 119°36'4 8.8
2018-Apr-21 23:00N 34°08' W 119°31'4 8.5
2018-Apr-21 22:30N 34°07' W 119°26'4 8.4
2018-Apr-21 21:58N 34°06' W 119°20'4 8.7
2018-Apr-21 21:29N 34°05' W 119°16'4 8.6
2018-Apr-21 21:00N 34°03' W 119°11'5 8.6
2018-Apr-21 20:29N 34°01' W 119°06'5 8.9
2018-Apr-21 19:58N 33°58' W 119°02'4 8.4
2018-Apr-21 19:27N 33°56' W 118°57'4 8.5
2018-Apr-21 18:58N 33°54' W 118°53'4 8.5
2018-Apr-21 18:30N 33°52' W 118°49'5 8.7
2018-Apr-21 17:59N 33°50' W 118°44'4 8.9
2018-Apr-21 17:30N 33°48' W 118°39'5 8.8
2018-Apr-21 16:58N 33°45' W 118°35'11 8.7
2018-Apr-21 15:39N 33°40' W 118°23'3 8.5
2018-Apr-21 15:17N 33°39' W 118°19'4 8.3
2018-Apr-21 14:51N 33°37' W 118°15'3 8.5
2018-Apr-21 14:28N 33°36' W 118°11'26 9.4
2018-Apr-21 11:44N 33°14' W 117°56'3 9.8
2018-Apr-21 11:25N 33°12' W 117°53'10 9.8
2018-Apr-21 10:22N 33°05' W 117°44'4 9.9
2018-Apr-21 09:59N 33°02' W 117°41'510.0
2018-Apr-21 09:30N 32°58' W 117°37'5 9.9
2018-Apr-21 09:00N 32°55' W 117°34'5 9.4
2018-Apr-21 08:30N 32°50' W 117°32'5 9.7
2018-Apr-21 08:00N 32°47' W 117°28'5 9.5
2018-Apr-21 07:30N 32°43' W 117°24'  

Dump ship's entire track history